createdAt,value
2022-08-19T00:01:28.717Z,5.75
2022-08-19T00:04:02.602Z,6.93
2022-08-19T00:06:30.974Z,5.45
2022-08-19T00:08:58.774Z,4.18
2022-08-19T00:11:26.992Z,5.20
2022-08-19T00:13:54.379Z,7.45
2022-08-19T00:16:25.194Z,5.20
2022-08-19T00:18:53.582Z,8.30
2022-08-19T00:21:20.314Z,5.65
2022-08-19T00:23:47.066Z,10.15
2022-08-19T00:26:13.656Z,5.30
2022-08-19T00:28:40.295Z,3.75
2022-08-19T00:31:09.183Z,3.22
2022-08-19T00:33:36.038Z,4.85
2022-08-19T00:36:05.583Z,7.47
2022-08-19T00:38:37.318Z,7.10
2022-08-19T00:41:07.588Z,10.52
2022-08-19T00:43:34.815Z,7.45
2022-08-19T00:46:05.792Z,6.28
2022-08-19T00:48:34.534Z,7.85
2022-08-19T00:51:02.121Z,7.50
2022-08-19T00:53:31.166Z,5.15
2022-08-19T00:56:00.586Z,6.88
2022-08-19T00:58:31.099Z,9.38
2022-08-19T01:00:57.767Z,6.32
2022-08-19T01:03:24.603Z,4.00
2022-08-19T01:05:54.608Z,12.40
2022-08-19T01:08:21.878Z,10.40
2022-08-19T01:10:55.874Z,5.10
2022-08-19T01:13:26.722Z,5.00
2022-08-19T01:16:02.508Z,10.20
2022-08-19T01:18:31.367Z,8.27
2022-08-19T01:21:06.267Z,10.70
2022-08-19T01:23:44.945Z,4.07
2022-08-19T01:26:17.150Z,7.13
2022-08-19T01:28:47.695Z,7.22
2022-08-19T01:31:26.725Z,9.27
2022-08-19T01:33:56.779Z,4.57
2022-08-19T01:36:29.080Z,7.80
2022-08-19T01:38:56.249Z,8.32
2022-08-19T01:41:24.504Z,9.75
2022-08-19T01:44:13.562Z,6.45
2022-08-19T01:46:41.407Z,9.65
2022-08-19T01:49:09.182Z,10.23
2022-08-19T01:51:39.694Z,7.03
2022-08-19T01:54:10.303Z,8.63
2022-08-19T01:56:37.284Z,8.32
2022-08-19T01:59:09.780Z,5.93
2022-08-19T02:01:36.921Z,8.50
2022-08-19T02:04:03.755Z,6.15
2022-08-19T02:06:31.132Z,6.57
2022-08-19T02:08:58.008Z,7.82
2022-08-19T02:11:32.465Z,11.15
2022-08-19T02:13:59.968Z,8.43
2022-08-19T02:16:26.682Z,5.82
2022-08-19T02:18:53.477Z,5.20
2022-08-19T02:21:23.219Z,10.82
2022-08-19T02:23:51.293Z,8.32
2022-08-19T02:26:19.738Z,6.90
2022-08-19T02:28:46.515Z,11.10
2022-08-19T02:31:16.493Z,8.50
2022-08-19T02:33:43.391Z,10.13
2022-08-19T02:36:11.732Z,9.00
2022-08-19T02:41:12.507Z,10.77
2022-08-19T02:44:18.398Z,8.98
2022-08-19T02:46:33.498Z,5.80
2022-08-19T02:49:08.200Z,6.93
2022-08-19T02:51:37.710Z,6.28
2022-08-19T02:54:05.963Z,9.10
2022-08-19T02:56:35.123Z,9.35
2022-08-19T02:59:01.726Z,9.32
2022-08-19T03:01:32.309Z,7.05
2022-08-19T03:04:04.720Z,9.93
2022-08-19T03:06:32.219Z,7.15
2022-08-19T03:08:59.086Z,10.05
2022-08-19T03:11:32.690Z,8.20
2022-08-19T03:14:01.170Z,7.43
2022-08-19T03:19:01.085Z,6.18
2022-08-19T03:21:31.145Z,7.55
2022-08-19T03:24:00.773Z,8.15
2022-08-19T03:26:27.701Z,6.90
2022-08-19T03:28:58.747Z,9.90
2022-08-19T03:31:44.050Z,8.05
2022-08-19T03:34:19.789Z,6.50
2022-08-19T03:36:46.994Z,4.47
2022-08-19T03:39:14.747Z,6.78
2022-08-19T03:41:45.785Z,7.13
2022-08-19T03:44:18.520Z,7.65
2022-08-19T03:46:56.391Z,7.60
2022-08-19T03:49:27.171Z,5.40
2022-08-19T03:51:57.564Z,8.90
2022-08-19T03:54:26.136Z,9.32
2022-08-19T04:01:57.434Z,5.80
2022-08-19T04:04:24.973Z,10.07
2022-08-19T04:06:56.962Z,8.00
2022-08-19T04:09:23.599Z,10.10
2022-08-19T04:11:55.064Z,12.48
2022-08-19T04:14:25.822Z,7.28
2022-08-19T04:16:53.125Z,6.35
2022-08-19T04:19:20.693Z,9.63
2022-08-19T04:21:49.967Z,6.80
2022-08-19T04:24:17.523Z,6.50
2022-08-19T04:26:44.967Z,5.72
2022-08-19T04:29:19.548Z,5.93
2022-08-19T04:31:47.103Z,7.65
2022-08-19T04:34:16.228Z,5.95
2022-08-19T04:36:45.665Z,6.68
2022-08-19T04:39:15.852Z,7.47
2022-08-19T04:42:01.410Z,5.45
2022-08-19T04:44:31.559Z,8.68
2022-08-19T04:47:00.875Z,9.98
2022-08-19T04:49:28.873Z,6.05
2022-08-19T04:51:56.034Z,5.93
2022-08-19T04:54:36.983Z,14.05
2022-08-19T04:57:08.067Z,6.35
2022-08-19T04:59:35.585Z,8.07
2022-08-19T05:02:02.178Z,9.43
2022-08-19T05:04:31.650Z,9.50
2022-08-19T05:07:01.100Z,6.65
2022-08-19T05:09:28.760Z,7.32
2022-08-19T05:12:19.894Z,7.75
2022-08-19T05:14:52.225Z,4.63
2022-08-19T05:17:38.425Z,6.95
2022-08-19T05:20:26.433Z,7.15
2022-08-19T05:22:53.397Z,6.53
2022-08-19T05:25:22.695Z,5.88
2022-08-19T05:27:50.229Z,8.32
2022-08-19T05:30:17.917Z,7.45
2022-08-19T05:32:45.518Z,8.48
2022-08-19T05:35:12.838Z,5.75
2022-08-19T05:37:41.326Z,6.03
2022-08-19T05:40:10.449Z,6.90
2022-08-19T05:42:37.897Z,7.30
2022-08-19T05:45:05.579Z,4.80
2022-08-19T05:47:33.160Z,7.30
2022-08-19T05:50:00.194Z,5.20
2022-08-19T05:52:28.475Z,6.95
2022-08-19T05:54:56.688Z,4.50
2022-08-19T05:59:56.730Z,4.40
2022-08-19T06:02:26.344Z,3.97
2022-08-19T06:04:53.286Z,3.92
2022-08-19T06:07:20.427Z,6.15
2022-08-19T06:09:59.010Z,7.50
2022-08-19T06:12:29.665Z,7.15
2022-08-19T06:17:31.703Z,5.70
2022-08-19T06:19:59.555Z,6.32
2022-08-19T06:22:26.549Z,7.43
2022-08-19T06:24:55.030Z,5.70
2022-08-19T06:27:22.418Z,7.97
2022-08-19T06:29:49.140Z,7.53
2022-08-19T06:32:17.505Z,7.50
2022-08-19T06:34:44.232Z,8.05
2022-08-19T06:37:12.853Z,5.63
2022-08-19T06:39:43.020Z,6.70
2022-08-19T06:42:17.795Z,7.15
2022-08-19T06:44:48.885Z,8.13
2022-08-19T06:47:23.114Z,7.15
2022-08-19T06:49:53.913Z,10.32
2022-08-19T06:52:20.945Z,6.45
2022-08-19T06:54:56.532Z,7.75
2022-08-19T06:57:27.646Z,11.52
2022-08-19T06:59:56.101Z,9.18
2022-08-19T07:04:55.207Z,7.57
2022-08-19T07:07:22.492Z,7.85
2022-08-19T07:09:58.200Z,6.80
2022-08-19T07:12:28.173Z,10.80
2022-08-19T07:14:57.012Z,12.63
2022-08-19T07:17:24.821Z,13.65
2022-08-19T07:19:54.352Z,11.65
2022-08-19T07:22:24.156Z,16.30
2022-08-19T07:24:53.980Z,10.88
2022-08-19T07:27:24.687Z,13.25
2022-08-19T07:29:57.172Z,12.27
2022-08-19T07:32:27.274Z,10.52
2022-08-19T07:34:54.538Z,18.48
2022-08-19T07:37:21.395Z,12.02
2022-08-19T07:39:48.301Z,10.63
2022-08-19T07:42:15.662Z,14.50
2022-08-19T07:44:50.040Z,11.82
2022-08-19T07:47:47.547Z,10.10
2022-08-19T07:50:09.483Z,9.48
2022-08-19T07:52:42.469Z,9.85
2022-08-19T07:55:42.404Z,15.77
2022-08-19T07:57:58.646Z,8.32
2022-08-19T08:00:25.486Z,9.68
2022-08-19T08:02:55.751Z,9.65
2022-08-19T08:05:44.894Z,9.82
2022-08-19T08:08:32.012Z,7.38
2022-08-19T08:10:59.682Z,11.73
2022-08-19T08:13:28.005Z,12.35
2022-08-19T08:15:56.278Z,14.90
2022-08-19T08:18:27.496Z,11.43
2022-08-19T08:20:55.825Z,8.50
2022-08-19T08:23:29.613Z,10.57
2022-08-19T08:25:58.825Z,10.23
2022-08-19T08:28:30.007Z,12.65
2022-08-19T08:30:58.660Z,10.05
2022-08-19T08:36:12.306Z,9.57
2022-08-19T08:38:42.815Z,10.82
2022-08-19T08:41:49.064Z,12.63
2022-08-19T08:44:22.033Z,15.18
2022-08-19T08:47:02.614Z,13.57
2022-08-19T08:49:43.648Z,14.57
2022-08-19T08:52:24.961Z,13.57
2022-08-19T08:55:02.432Z,17.38
2022-08-19T08:57:38.588Z,12.55
2022-08-19T09:00:16.201Z,12.65
2022-08-19T09:02:43.788Z,13.52
2022-08-19T09:05:16.610Z,14.37
2022-08-19T09:08:06.800Z,12.93
2022-08-19T09:10:46.311Z,15.05
2022-08-19T09:13:20.370Z,12.15
2022-08-19T09:16:00.756Z,13.70
2022-08-19T09:18:49.935Z,11.43
2022-08-19T09:21:21.874Z,11.05
2022-08-19T09:23:59.543Z,11.75
2022-08-19T09:26:35.278Z,8.00
2022-08-19T09:29:14.546Z,11.20
2022-08-19T09:31:41.453Z,6.68
2022-08-19T09:34:21.541Z,10.02
2022-08-19T09:36:50.551Z,12.55
2022-08-19T09:39:20.038Z,11.73
2022-08-19T09:41:49.134Z,13.60
2022-08-19T09:44:16.691Z,7.70
2022-08-19T09:46:47.831Z,9.48
2022-08-19T09:49:14.609Z,10.07
2022-08-19T09:51:41.330Z,8.10
2022-08-19T09:54:08.098Z,7.28
2022-08-19T09:56:38.381Z,6.25
2022-08-19T09:59:05.242Z,9.23
2022-08-19T10:01:33.641Z,7.53
2022-08-19T10:06:45.822Z,8.25
2022-08-19T10:09:14.647Z,8.68
2022-08-19T10:11:52.531Z,7.63
2022-08-19T10:14:24.601Z,8.60
2022-08-19T10:16:53.115Z,5.75
2022-08-19T10:19:25.710Z,6.97
2022-08-19T10:21:54.037Z,8.52
2022-08-19T10:24:21.678Z,5.97
2022-08-19T10:26:55.911Z,7.67
2022-08-19T10:29:32.660Z,6.15
2022-08-19T10:32:09.788Z,3.45
2022-08-19T10:34:48.130Z,3.35
2022-08-19T10:42:36.278Z,5.53
2022-08-19T10:45:04.940Z,5.35
2022-08-19T10:47:31.986Z,9.65
2022-08-19T10:50:17.338Z,4.05
2022-08-19T10:52:49.220Z,2.97
2022-08-19T10:55:38.425Z,3.63
2022-08-19T10:58:05.246Z,7.15
2022-08-19T11:00:32.682Z,6.07
2022-08-19T11:02:59.425Z,5.10
2022-08-19T11:05:26.379Z,5.65
2022-08-19T11:07:53.508Z,5.32
2022-08-19T11:10:22.516Z,6.23
2022-08-19T11:12:49.628Z,5.82
2022-08-19T11:15:16.837Z,5.43
2022-08-19T11:17:44.441Z,6.57
2022-08-19T11:20:15.708Z,5.47
2022-08-19T11:22:43.317Z,6.03
2022-08-19T11:25:11.865Z,4.47
2022-08-19T11:27:43.659Z,8.57
2022-08-19T11:30:13.266Z,5.78
2022-08-19T11:32:45.702Z,4.95
2022-08-19T11:35:14.059Z,6.32
2022-08-19T11:37:41.618Z,3.83
2022-08-19T11:40:09.106Z,5.60
2022-08-19T11:42:54.671Z,4.57
2022-08-19T11:45:21.268Z,6.68
2022-08-19T11:47:48.558Z,5.60
2022-08-19T11:50:16.672Z,5.38
2022-08-19T11:52:45.136Z,5.93
2022-08-19T11:55:15.584Z,7.07
2022-08-19T11:57:44.471Z,6.03
2022-08-19T12:00:13.602Z,6.95
2022-08-19T12:02:40.790Z,7.53
2022-08-19T12:05:12.020Z,6.10
2022-08-19T12:07:40.818Z,5.50
2022-08-19T12:10:07.922Z,5.75
2022-08-19T12:12:35.288Z,5.68
2022-08-19T12:15:02.769Z,5.18
2022-08-19T12:17:29.709Z,7.17
2022-08-19T12:19:56.351Z,5.75
2022-08-19T12:22:23.460Z,6.60
2022-08-19T12:24:51.761Z,8.07
2022-08-19T12:30:06.197Z,8.27
2022-08-19T12:32:32.942Z,6.85
2022-08-19T12:34:59.524Z,6.13
2022-08-19T12:37:26.274Z,7.00
2022-08-19T12:39:52.880Z,7.13
2022-08-19T12:42:19.664Z,6.90
2022-08-19T12:44:46.332Z,7.28
2022-08-19T12:47:17.986Z,6.07
2022-08-19T12:49:55.051Z,5.70
2022-08-19T12:52:25.984Z,10.25
2022-08-19T12:54:55.332Z,8.25
2022-08-19T12:57:32.673Z,6.82
2022-08-19T13:00:02.017Z,9.73
2022-08-19T13:02:33.120Z,8.80
2022-08-19T13:05:09.169Z,6.82
2022-08-19T13:07:36.162Z,7.03
2022-08-19T13:10:02.970Z,5.97
2022-08-19T13:12:29.526Z,6.97
2022-08-19T13:14:56.735Z,5.53
2022-08-19T13:17:23.991Z,6.75
2022-08-19T13:19:51.742Z,6.13
2022-08-19T13:22:18.499Z,4.68
2022-08-19T13:24:47.407Z,6.97
2022-08-19T13:27:14.470Z,5.30
2022-08-19T13:30:01.309Z,4.88
2022-08-19T13:32:46.698Z,3.83
2022-08-19T13:35:17.056Z,3.72
2022-08-19T13:40:16.552Z,5.03
2022-08-19T13:42:44.882Z,4.13
2022-08-19T13:47:43.593Z,4.15
2022-08-19T13:50:12.103Z,7.10
2022-08-19T13:52:39.658Z,5.18
2022-08-19T13:55:07.686Z,3.97
2022-08-19T13:57:34.633Z,5.25
2022-08-19T14:00:01.640Z,4.55
2022-08-19T14:02:28.215Z,5.25
2022-08-19T14:04:54.774Z,5.28
2022-08-19T14:07:24.427Z,3.47
2022-08-19T14:09:51.618Z,4.75
2022-08-19T14:12:28.639Z,4.30
2022-08-19T14:14:55.810Z,3.60
2022-08-19T14:17:22.541Z,4.05
2022-08-19T14:19:50.171Z,3.67
2022-08-19T14:22:21.990Z,4.03
2022-08-19T14:24:49.397Z,3.03
2022-08-19T14:27:15.971Z,3.33
2022-08-19T14:29:42.763Z,3.17
2022-08-19T14:32:11.548Z,3.70
2022-08-19T14:34:46.636Z,3.38
2022-08-19T14:37:16.977Z,2.38
2022-08-19T14:39:44.084Z,5.20
2022-08-19T14:42:11.665Z,3.20
2022-08-19T14:44:38.889Z,3.55
2022-08-19T14:47:07.909Z,1.98
2022-08-19T14:49:42.243Z,5.97
2022-08-19T14:52:11.376Z,4.07
2022-08-19T14:54:37.946Z,5.22
2022-08-19T14:57:04.595Z,5.55
2022-08-19T14:59:31.203Z,2.47
2022-08-19T15:01:57.858Z,2.72
2022-08-19T15:04:24.453Z,3.95
2022-08-19T15:06:51.749Z,4.47
2022-08-19T15:09:18.319Z,4.50
2022-08-19T15:11:44.906Z,2.67
2022-08-19T15:14:11.481Z,5.00
2022-08-19T15:16:40.390Z,6.10
2022-08-19T15:19:06.918Z,7.10
2022-08-19T15:21:33.768Z,4.97
2022-08-19T15:24:02.087Z,5.82
2022-08-19T15:26:29.045Z,4.10
2022-08-19T15:28:55.609Z,6.05
2022-08-19T15:31:28.775Z,7.00
2022-08-19T15:33:58.533Z,8.90
2022-08-19T15:36:26.239Z,5.45
2022-08-19T15:38:53.271Z,4.70
2022-08-19T15:41:26.349Z,6.25
2022-08-19T15:43:57.363Z,5.57
2022-08-19T15:46:28.164Z,4.47
2022-08-19T15:48:57.314Z,5.18
2022-08-19T15:51:31.306Z,5.03
2022-08-19T15:53:59.338Z,4.82
2022-08-19T15:56:27.522Z,4.65
2022-08-19T15:59:12.997Z,4.97
2022-08-19T16:01:58.018Z,4.78
2022-08-19T16:04:43.157Z,4.07
2022-08-19T16:07:10.222Z,5.13
2022-08-19T16:09:36.881Z,5.10
2022-08-19T16:12:05.901Z,5.03
2022-08-19T16:14:35.305Z,5.75
2022-08-19T16:17:02.157Z,3.55
2022-08-19T16:19:28.822Z,3.20
2022-08-19T16:21:57.324Z,5.90
2022-08-19T16:24:26.758Z,6.72
2022-08-19T16:26:53.762Z,3.30
2022-08-19T16:29:33.589Z,9.32
2022-08-19T16:32:05.519Z,4.30
2022-08-19T16:34:33.779Z,8.05
2022-08-19T16:37:01.235Z,4.72
2022-08-19T16:39:29.144Z,5.80
2022-08-19T16:41:55.751Z,5.75
2022-08-19T16:44:22.585Z,4.68
2022-08-19T16:46:58.460Z,4.47
2022-08-19T16:49:52.821Z,6.10
2022-08-19T16:52:14.947Z,5.20
2022-08-19T16:54:43.605Z,9.37
2022-08-19T16:57:11.765Z,7.32
2022-08-19T17:02:21.910Z,9.53
2022-08-19T17:04:57.322Z,7.32
2022-08-19T17:07:27.831Z,7.43
2022-08-19T17:09:55.404Z,4.90
2022-08-19T17:12:23.300Z,7.43
2022-08-19T17:14:58.437Z,6.78
2022-08-19T17:17:28.859Z,3.28
2022-08-19T17:19:55.809Z,4.55
2022-08-19T17:22:22.421Z,7.70
2022-08-19T17:24:49.295Z,5.60
2022-08-19T17:27:15.860Z,4.10
2022-08-19T17:29:46.759Z,3.42
2022-08-19T17:32:14.481Z,6.95
2022-08-19T17:34:41.262Z,4.30
2022-08-19T17:37:07.813Z,4.70
2022-08-19T17:39:38.947Z,5.57
2022-08-19T17:42:06.861Z,5.40
2022-08-19T17:44:37.298Z,5.78
2022-08-19T17:47:04.726Z,4.75
2022-08-19T17:49:33.314Z,4.47
2022-08-19T17:52:00.554Z,4.38
2022-08-19T17:54:33.797Z,5.15
2022-08-19T17:57:01.369Z,5.93
2022-08-19T17:59:30.212Z,7.68
2022-08-19T18:01:57.354Z,3.05
2022-08-19T18:04:25.379Z,7.10
2022-08-19T18:06:54.743Z,4.57
2022-08-19T18:09:41.414Z,3.85
2022-08-19T18:12:12.740Z,6.13
2022-08-19T18:14:39.703Z,4.93
2022-08-19T18:17:15.172Z,5.13
2022-08-19T18:19:43.982Z,6.30
2022-08-19T18:22:33.975Z,3.13
2022-08-19T18:25:02.141Z,6.70
2022-08-19T18:27:28.782Z,3.33
2022-08-19T18:29:59.148Z,5.63
2022-08-19T18:32:28.379Z,8.60
2022-08-19T18:34:56.197Z,4.97
2022-08-19T18:37:25.144Z,4.65
2022-08-19T18:40:10.150Z,5.10
2022-08-19T18:42:59.866Z,4.28
2022-08-19T18:45:45.345Z,5.45
2022-08-19T18:48:30.593Z,3.28
2022-08-19T18:50:59.476Z,4.50
2022-08-19T18:53:29.127Z,4.88
2022-08-19T18:55:56.217Z,5.70
2022-08-19T18:58:26.712Z,10.02
2022-08-19T19:00:56.849Z,8.85
2022-08-19T19:03:25.193Z,8.00
2022-08-19T19:05:52.782Z,9.02
2022-08-19T19:08:19.634Z,8.43
2022-08-19T19:10:47.654Z,5.78
2022-08-19T19:13:17.555Z,5.05
2022-08-19T19:15:44.111Z,7.85
2022-08-19T19:18:13.317Z,6.85
2022-08-19T19:20:42.933Z,5.18
2022-08-19T19:23:09.532Z,9.02
2022-08-19T19:25:50.550Z,5.68
2022-08-19T19:28:22.351Z,5.32
2022-08-19T19:30:48.922Z,6.75
2022-08-19T19:33:15.471Z,4.75
2022-08-19T19:35:45.790Z,4.93
2022-08-19T19:38:13.951Z,5.15
2022-08-19T19:40:40.744Z,4.55
2022-08-19T19:43:08.260Z,4.18
2022-08-19T19:45:35.055Z,8.32
2022-08-19T19:48:01.627Z,4.97
2022-08-19T19:50:30.148Z,3.92
2022-08-19T19:52:58.369Z,7.07
2022-08-19T19:55:26.846Z,4.80
2022-08-19T20:00:22.143Z,3.53
2022-08-19T20:02:50.806Z,6.47
2022-08-19T20:05:21.276Z,6.60
2022-08-19T20:08:07.644Z,4.38
2022-08-19T20:10:34.933Z,7.97
2022-08-19T20:13:03.560Z,8.35
2022-08-19T20:18:02.313Z,5.80
2022-08-19T20:20:29.102Z,4.68
2022-08-19T20:22:56.045Z,7.53
2022-08-19T20:25:22.982Z,9.07
2022-08-19T20:27:50.482Z,5.75
2022-08-19T20:30:21.311Z,6.45
2022-08-19T20:32:50.790Z,7.07
2022-08-19T20:35:20.514Z,5.47
2022-08-19T20:37:47.646Z,5.13
2022-08-19T20:40:15.404Z,5.22
2022-08-19T20:42:43.945Z,4.53
2022-08-19T20:45:32.083Z,5.68
2022-08-19T20:48:02.688Z,6.10
2022-08-19T20:50:30.615Z,7.30
2022-08-19T20:52:57.738Z,4.70
2022-08-19T20:55:24.505Z,5.60
2022-08-19T20:57:51.644Z,5.53
2022-08-19T21:00:22.100Z,8.00
2022-08-19T21:02:48.710Z,4.25
2022-08-19T21:05:15.269Z,4.65
2022-08-19T21:07:41.936Z,3.30
2022-08-19T21:10:08.998Z,3.47
2022-08-19T21:12:35.622Z,7.47
2022-08-19T21:15:02.394Z,5.05
2022-08-19T21:17:28.976Z,5.18
2022-08-19T21:19:55.559Z,3.35
2022-08-19T21:22:23.632Z,5.00
2022-08-19T21:24:50.245Z,2.90
2022-08-19T21:27:16.826Z,2.97
2022-08-19T21:29:43.519Z,5.05
2022-08-19T21:32:14.163Z,4.65
2022-08-19T21:34:41.461Z,7.88
2022-08-19T21:37:12.385Z,5.18
2022-08-19T21:39:52.862Z,7.78
2022-08-19T21:42:19.730Z,4.53
2022-08-19T21:44:46.328Z,4.03
2022-08-19T21:47:13.037Z,3.33
2022-08-19T21:49:40.036Z,5.78
2022-08-19T21:52:06.935Z,3.38
2022-08-19T21:54:37.651Z,9.82
2022-08-19T21:57:10.064Z,3.78
2022-08-19T21:59:41.140Z,3.50
2022-08-19T22:02:21.943Z,4.50
2022-08-19T22:04:52.851Z,5.15
2022-08-19T22:07:21.908Z,4.75
2022-08-19T22:09:50.238Z,3.38
2022-08-19T22:12:23.976Z,4.28
2022-08-19T22:14:51.982Z,3.45
2022-08-19T22:17:19.200Z,5.97
2022-08-19T22:19:45.855Z,2.25
2022-08-19T22:22:12.849Z,3.75
2022-08-19T22:24:39.480Z,2.42
2022-08-19T22:27:06.831Z,7.80
2022-08-19T22:29:36.566Z,3.03
2022-08-19T22:32:14.057Z,3.72
2022-08-19T22:34:51.758Z,4.95
2022-08-19T22:37:18.385Z,2.80
2022-08-19T22:39:45.418Z,5.32
2022-08-19T22:42:12.163Z,5.78
2022-08-19T22:44:38.713Z,3.22
2022-08-19T22:47:05.388Z,3.72
2022-08-19T22:49:32.047Z,2.88
2022-08-19T22:52:17.132Z,5.72
2022-08-19T22:54:48.793Z,4.63
2022-08-19T22:57:16.079Z,4.65
2022-08-19T22:59:42.930Z,3.92
2022-08-19T23:02:10.011Z,2.13
2022-08-19T23:04:36.830Z,2.67
2022-08-19T23:07:04.883Z,2.45
2022-08-19T23:09:31.535Z,10.38
2022-08-19T23:11:58.262Z,3.13
2022-08-19T23:14:24.821Z,1.83
2022-08-19T23:16:52.838Z,3.83
2022-08-19T23:19:21.795Z,4.00
2022-08-19T23:21:48.493Z,3.33
2022-08-19T23:24:15.220Z,4.40
2022-08-19T23:27:01.760Z,6.13
2022-08-19T23:29:47.370Z,6.75
2022-08-19T23:32:16.185Z,6.78
2022-08-19T23:34:43.001Z,5.20
2022-08-19T23:37:09.592Z,3.72
2022-08-19T23:39:36.274Z,7.10
2022-08-19T23:42:03.266Z,4.75
2022-08-19T23:44:32.001Z,5.28
2022-08-19T23:47:00.260Z,5.35
2022-08-19T23:49:33.401Z,4.43
2022-08-19T23:51:59.973Z,6.78
2022-08-19T23:54:35.221Z,8.85
2022-08-19T23:57:14.202Z,5.30
2022-08-19T23:59:42.558Z,5.28
